Terminal Aerodrome Forecast
Issued by NWS Charleston, SC

Home | Current Version | Previous Version | Text Only | Print | Product List | Glossary On
Versions: 1 2 3 4 5 6 7 8 9 10 11 12 13 14 15 16 17 18 19
554
FTUS42 KCHS 090536
TAFSAV
TAF
KSAV 090536Z 0906/1006 29009KT P6SM SKC
     FM091000 27013G20KT P6SM SCT035
     FM091700 27024G32KT P6SM SCT035 BKN050
     FM100100 28014G21KT P6SM SCT040=

USA.gov is the U.S. government's official web portal to all federal, state and local government web resources and services.